sensor_id;sensor_type;location;lat;lon;timestamp;P1;durP1;ratioP1;P2;durP2;ratioP2
23402;SDS011;11874;48.228;11.684;2022-12-07T00:01:17;8.68;;;6.70;;
23402;SDS011;11874;48.228;11.684;2022-12-07T00:03:47;9.30;;;7.25;;
23402;SDS011;11874;48.228;11.684;2022-12-07T00:06:16;8.15;;;6.78;;
23402;SDS011;11874;48.228;11.684;2022-12-07T00:08:45;8.50;;;6.60;;
23402;SDS011;11874;48.228;11.684;2022-12-07T00:11:14;7.25;;;5.95;;
23402;SDS011;11874;48.228;11.684;2022-12-07T00:13:44;9.52;;;7.03;;
23402;SDS011;11874;48.228;11.684;2022-12-07T00:16:13;9.23;;;6.57;;
23402;SDS011;11874;48.228;11.684;2022-12-07T00:18:44;10.20;;;6.45;;
23402;SDS011;11874;48.228;11.684;2022-12-07T00:21:12;9.77;;;7.05;;
23402;SDS011;11874;48.228;11.684;2022-12-07T00:23:42;10.05;;;6.78;;
23402;SDS011;11874;48.228;11.684;2022-12-07T00:26:12;9.35;;;7.05;;
23402;SDS011;11874;48.228;11.684;2022-12-07T00:28:45;8.75;;;6.82;;
23402;SDS011;11874;48.228;11.684;2022-12-07T00:31:14;8.88;;;6.47;;
23402;SDS011;11874;48.228;11.684;2022-12-07T00:33:43;9.00;;;6.47;;
23402;SDS011;11874;48.228;11.684;2022-12-07T00:36:12;10.45;;;7.32;;
23402;SDS011;11874;48.228;11.684;2022-12-07T00:38:42;9.63;;;6.97;;
23402;SDS011;11874;48.228;11.684;2022-12-07T00:41:10;9.73;;;7.15;;
23402;SDS011;11874;48.228;11.684;2022-12-07T00:43:40;11.45;;;7.30;;
23402;SDS011;11874;48.228;11.684;2022-12-07T00:46:10;10.30;;;6.93;;
23402;SDS011;11874;48.228;11.684;2022-12-07T00:48:39;8.07;;;6.25;;
23402;SDS011;11874;48.228;11.684;2022-12-07T00:51:07;9.23;;;6.60;;
23402;SDS011;11874;48.228;11.684;2022-12-07T00:53:37;8.05;;;6.68;;
23402;SDS011;11874;48.228;11.684;2022-12-07T00:56:07;12.15;;;7.47;;
23402;SDS011;11874;48.228;11.684;2022-12-07T00:58:36;9.60;;;6.75;;
23402;SDS011;11874;48.228;11.684;2022-12-07T01:01:05;9.13;;;7.00;;
23402;SDS011;11874;48.228;11.684;2022-12-07T01:03:35;9.48;;;7.07;;
23402;SDS011;11874;48.228;11.684;2022-12-07T01:06:04;10.98;;;7.30;;
23402;SDS011;11874;48.228;11.684;2022-12-07T01:08:32;9.95;;;7.30;;
23402;SDS011;11874;48.228;11.684;2022-12-07T01:11:01;8.93;;;6.88;;
23402;SDS011;11874;48.228;11.684;2022-12-07T01:13:30;9.75;;;6.70;;
23402;SDS011;11874;48.228;11.684;2022-12-07T01:15:59;9.13;;;6.63;;
23402;SDS011;11874;48.228;11.684;2022-12-07T01:18:28;9.38;;;6.97;;
23402;SDS011;11874;48.228;11.684;2022-12-07T01:21:00;10.77;;;6.80;;
23402;SDS011;11874;48.228;11.684;2022-12-07T01:23:29;10.90;;;7.38;;
23402;SDS011;11874;48.228;11.684;2022-12-07T01:25:58;10.65;;;6.95;;
23402;SDS011;11874;48.228;11.684;2022-12-07T01:28:27;10.10;;;7.13;;
23402;SDS011;11874;48.228;11.684;2022-12-07T01:30:56;12.68;;;6.72;;
23402;SDS011;11874;48.228;11.684;2022-12-07T01:33:26;10.43;;;6.95;;
23402;SDS011;11874;48.228;11.684;2022-12-07T01:36:01;9.27;;;6.60;;
23402;SDS011;11874;48.228;11.684;2022-12-07T01:38:30;10.45;;;7.35;;
23402;SDS011;11874;48.228;11.684;2022-12-07T01:40:59;9.32;;;6.65;;
23402;SDS011;11874;48.228;11.684;2022-12-07T01:43:29;11.57;;;7.25;;
23402;SDS011;11874;48.228;11.684;2022-12-07T01:45:57;11.43;;;7.72;;
23402;SDS011;11874;48.228;11.684;2022-12-07T01:48:27;10.35;;;7.30;;
23402;SDS011;11874;48.228;11.684;2022-12-07T01:51:00;8.85;;;6.85;;
23402;SDS011;11874;48.228;11.684;2022-12-07T01:53:31;10.27;;;6.78;;
23402;SDS011;11874;48.228;11.684;2022-12-07T01:56:02;10.53;;;7.77;;
23402;SDS011;11874;48.228;11.684;2022-12-07T01:58:31;10.77;;;7.75;;
23402;SDS011;11874;48.228;11.684;2022-12-07T02:00:58;12.77;;;7.68;;
23402;SDS011;11874;48.228;11.684;2022-12-07T02:03:27;12.60;;;7.68;;
23402;SDS011;11874;48.228;11.684;2022-12-07T02:05:58;10.75;;;7.75;;
23402;SDS011;11874;48.228;11.684;2022-12-07T02:08:29;12.88;;;8.20;;
23402;SDS011;11874;48.228;11.684;2022-12-07T02:10:56;11.70;;;7.60;;
23402;SDS011;11874;48.228;11.684;2022-12-07T02:13:25;11.52;;;8.07;;
23402;SDS011;11874;48.228;11.684;2022-12-07T02:16:14;11.77;;;7.83;;
23402;SDS011;11874;48.228;11.684;2022-12-07T02:18:54;11.20;;;8.35;;
23402;SDS011;11874;48.228;11.684;2022-12-07T02:21:36;8.88;;;6.05;;
23402;SDS011;11874;48.228;11.684;2022-12-07T02:24:19;12.27;;;8.45;;
23402;SDS011;11874;48.228;11.684;2022-12-07T02:30:03;11.23;;;7.65;;
23402;SDS011;11874;48.228;11.684;2022-12-07T02:32:37;12.63;;;8.27;;
23402;SDS011;11874;48.228;11.684;2022-12-07T02:35:15;11.98;;;8.00;;
23402;SDS011;11874;48.228;11.684;2022-12-07T02:37:49;12.68;;;8.73;;
23402;SDS011;11874;48.228;11.684;2022-12-07T02:40:24;13.65;;;8.63;;
23402;SDS011;11874;48.228;11.684;2022-12-07T02:42:58;11.60;;;8.82;;
23402;SDS011;11874;48.228;11.684;2022-12-07T02:45:32;14.27;;;8.85;;
23402;SDS011;11874;48.228;11.684;2022-12-07T02:48:03;11.88;;;8.25;;
23402;SDS011;11874;48.228;11.684;2022-12-07T02:50:34;13.77;;;8.85;;
23402;SDS011;11874;48.228;11.684;2022-12-07T02:53:01;13.13;;;9.10;;
23402;SDS011;11874;48.228;11.684;2022-12-07T02:55:32;12.40;;;7.75;;
23402;SDS011;11874;48.228;11.684;2022-12-07T02:58:17;13.90;;;8.20;;
23402;SDS011;11874;48.228;11.684;2022-12-07T03:00:59;12.07;;;9.10;;
23402;SDS011;11874;48.228;11.684;2022-12-07T03:03:35;12.45;;;8.68;;
23402;SDS011;11874;48.228;11.684;2022-12-07T03:06:07;13.02;;;8.27;;
23402;SDS011;11874;48.228;11.684;2022-12-07T03:08:44;13.27;;;8.52;;
23402;SDS011;11874;48.228;11.684;2022-12-07T03:11:20;12.93;;;8.80;;
23402;SDS011;11874;48.228;11.684;2022-12-07T03:13:54;11.48;;;8.05;;
23402;SDS011;11874;48.228;11.684;2022-12-07T03:16:31;9.77;;;7.43;;
23402;SDS011;11874;48.228;11.684;2022-12-07T03:19:03;11.73;;;8.13;;
23402;SDS011;11874;48.228;11.684;2022-12-07T03:24:06;10.18;;;7.45;;
23402;SDS011;11874;48.228;11.684;2022-12-07T03:26:40;12.23;;;7.93;;
23402;SDS011;11874;48.228;11.684;2022-12-07T03:29:11;12.50;;;8.57;;
23402;SDS011;11874;48.228;11.684;2022-12-07T03:31:46;12.75;;;7.60;;
23402;SDS011;11874;48.228;11.684;2022-12-07T03:34:19;10.13;;;7.28;;
23402;SDS011;11874;48.228;11.684;2022-12-07T03:36:52;12.18;;;8.02;;
23402;SDS011;11874;48.228;11.684;2022-12-07T03:39:25;10.88;;;7.95;;
23402;SDS011;11874;48.228;11.684;2022-12-07T03:41:58;11.05;;;8.30;;
23402;SDS011;11874;48.228;11.684;2022-12-07T03:44:27;11.40;;;7.68;;
23402;SDS011;11874;48.228;11.684;2022-12-07T03:46:59;14.10;;;8.48;;
23402;SDS011;11874;48.228;11.684;2022-12-07T03:49:31;12.15;;;8.07;;
23402;SDS011;11874;48.228;11.684;2022-12-07T03:52:07;11.35;;;7.95;;
23402;SDS011;11874;48.228;11.684;2022-12-07T03:54:41;12.77;;;8.40;;
23402;SDS011;11874;48.228;11.684;2022-12-07T03:57:12;12.20;;;8.48;;
23402;SDS011;11874;48.228;11.684;2022-12-07T03:59:41;11.32;;;7.32;;
23402;SDS011;11874;48.228;11.684;2022-12-07T04:02:11;11.80;;;8.40;;
23402;SDS011;11874;48.228;11.684;2022-12-07T04:04:40;11.73;;;8.60;;
23402;SDS011;11874;48.228;11.684;2022-12-07T04:07:09;11.73;;;8.05;;
23402;SDS011;11874;48.228;11.684;2022-12-07T04:09:38;13.45;;;9.15;;
23402;SDS011;11874;48.228;11.684;2022-12-07T04:12:06;11.25;;;8.32;;
23402;SDS011;11874;48.228;11.684;2022-12-07T04:14:34;10.60;;;7.82;;
23402;SDS011;11874;48.228;11.684;2022-12-07T04:17:02;10.10;;;7.85;;
23402;SDS011;11874;48.228;11.684;2022-12-07T04:19:32;12.02;;;8.45;;
23402;SDS011;11874;48.228;11.684;2022-12-07T04:22:02;10.95;;;8.00;;
23402;SDS011;11874;48.228;11.684;2022-12-07T04:24:31;11.40;;;8.23;;
23402;SDS011;11874;48.228;11.684;2022-12-07T04:27:00;11.85;;;8.25;;
23402;SDS011;11874;48.228;11.684;2022-12-07T04:29:28;10.13;;;8.02;;
23402;SDS011;11874;48.228;11.684;2022-12-07T04:31:56;12.18;;;8.65;;
23402;SDS011;11874;48.228;11.684;2022-12-07T04:34:24;12.77;;;8.40;;
23402;SDS011;11874;48.228;11.684;2022-12-07T04:36:53;11.35;;;8.07;;
23402;SDS011;11874;48.228;11.684;2022-12-07T04:39:22;12.98;;;8.48;;
23402;SDS011;11874;48.228;11.684;2022-12-07T04:41:52;12.32;;;8.30;;
23402;SDS011;11874;48.228;11.684;2022-12-07T04:44:20;12.30;;;8.52;;
23402;SDS011;11874;48.228;11.684;2022-12-07T04:46:49;11.63;;;8.00;;
23402;SDS011;11874;48.228;11.684;2022-12-07T04:49:18;12.52;;;8.40;;
23402;SDS011;11874;48.228;11.684;2022-12-07T04:51:46;11.25;;;8.55;;
23402;SDS011;11874;48.228;11.684;2022-12-07T04:54:16;15.27;;;9.35;;
23402;SDS011;11874;48.228;11.684;2022-12-07T04:56:44;12.32;;;8.80;;
23402;SDS011;11874;48.228;11.684;2022-12-07T04:59:13;12.23;;;9.23;;
23402;SDS011;11874;48.228;11.684;2022-12-07T05:01:41;12.25;;;9.18;;
23402;SDS011;11874;48.228;11.684;2022-12-07T05:04:10;13.15;;;9.13;;
23402;SDS011;11874;48.228;11.684;2022-12-07T05:06:38;12.68;;;8.82;;
23402;SDS011;11874;48.228;11.684;2022-12-07T05:09:06;12.60;;;8.93;;
23402;SDS011;11874;48.228;11.684;2022-12-07T05:11:35;14.07;;;9.45;;
23402;SDS011;11874;48.228;11.684;2022-12-07T05:14:08;12.45;;;9.05;;
23402;SDS011;11874;48.228;11.684;2022-12-07T05:16:38;12.32;;;8.82;;
23402;SDS011;11874;48.228;11.684;2022-12-07T05:19:07;13.02;;;9.13;;
23402;SDS011;11874;48.228;11.684;2022-12-07T05:21:36;13.38;;;9.05;;
23402;SDS011;11874;48.228;11.684;2022-12-07T05:24:05;13.35;;;9.05;;
23402;SDS011;11874;48.228;11.684;2022-12-07T05:26:34;13.18;;;8.82;;
23402;SDS011;11874;48.228;11.684;2022-12-07T05:29:03;11.30;;;8.98;;
23402;SDS011;11874;48.228;11.684;2022-12-07T05:31:31;12.85;;;8.50;;
23402;SDS011;11874;48.228;11.684;2022-12-07T05:34:00;17.50;;;9.40;;
23402;SDS011;11874;48.228;11.684;2022-12-07T05:36:28;13.32;;;8.77;;
23402;SDS011;11874;48.228;11.684;2022-12-07T05:38:57;12.77;;;9.13;;
23402;SDS011;11874;48.228;11.684;2022-12-07T05:41:25;13.35;;;8.93;;
23402;SDS011;11874;48.228;11.684;2022-12-07T05:44:12;12.80;;;8.98;;
23402;SDS011;11874;48.228;11.684;2022-12-07T05:46:40;12.20;;;8.77;;
23402;SDS011;11874;48.228;11.684;2022-12-07T05:49:08;12.85;;;8.50;;
23402;SDS011;11874;48.228;11.684;2022-12-07T05:51:36;14.02;;;9.30;;
23402;SDS011;11874;48.228;11.684;2022-12-07T05:54:04;11.55;;;8.40;;
23402;SDS011;11874;48.228;11.684;2022-12-07T05:56:32;14.23;;;9.45;;
23402;SDS011;11874;48.228;11.684;2022-12-07T05:58:59;15.15;;;8.98;;
23402;SDS011;11874;48.228;11.684;2022-12-07T06:01:46;14.25;;;8.68;;
23402;SDS011;11874;48.228;11.684;2022-12-07T06:04:14;12.75;;;8.90;;
23402;SDS011;11874;48.228;11.684;2022-12-07T06:06:42;13.73;;;8.73;;
23402;SDS011;11874;48.228;11.684;2022-12-07T06:09:10;12.95;;;8.98;;
23402;SDS011;11874;48.228;11.684;2022-12-07T06:11:39;14.43;;;8.68;;
23402;SDS011;11874;48.228;11.684;2022-12-07T06:14:24;13.52;;;9.20;;
23402;SDS011;11874;48.228;11.684;2022-12-07T06:16:54;11.70;;;8.65;;
23402;SDS011;11874;48.228;11.684;2022-12-07T06:19:22;12.93;;;9.32;;
23402;SDS011;11874;48.228;11.684;2022-12-07T06:21:50;12.27;;;8.50;;
23402;SDS011;11874;48.228;11.684;2022-12-07T06:24:18;13.45;;;9.35;;
23402;SDS011;11874;48.228;11.684;2022-12-07T06:26:46;13.95;;;9.85;;
23402;SDS011;11874;48.228;11.684;2022-12-07T06:29:14;11.82;;;9.32;;
23402;SDS011;11874;48.228;11.684;2022-12-07T06:31:43;13.05;;;9.23;;
23402;SDS011;11874;48.228;11.684;2022-12-07T06:34:14;13.52;;;9.07;;
23402;SDS011;11874;48.228;11.684;2022-12-07T06:36:43;16.58;;;9.75;;
23402;SDS011;11874;48.228;11.684;2022-12-07T06:39:11;14.98;;;10.05;;
23402;SDS011;11874;48.228;11.684;2022-12-07T06:41:39;12.65;;;9.45;;
23402;SDS011;11874;48.228;11.684;2022-12-07T06:44:07;16.63;;;9.75;;
23402;SDS011;11874;48.228;11.684;2022-12-07T06:46:35;14.80;;;10.02;;
23402;SDS011;11874;48.228;11.684;2022-12-07T06:49:03;16.42;;;10.27;;
23402;SDS011;11874;48.228;11.684;2022-12-07T06:51:33;15.55;;;9.98;;
23402;SDS011;11874;48.228;11.684;2022-12-07T06:54:02;15.05;;;10.35;;
23402;SDS011;11874;48.228;11.684;2022-12-07T06:56:31;15.02;;;10.20;;
23402;SDS011;11874;48.228;11.684;2022-12-07T06:58:58;14.32;;;9.10;;
23402;SDS011;11874;48.228;11.684;2022-12-07T07:01:26;13.48;;;9.27;;
23402;SDS011;11874;48.228;11.684;2022-12-07T07:03:54;14.63;;;9.63;;
23402;SDS011;11874;48.228;11.684;2022-12-07T07:06:22;14.13;;;9.73;;
23402;SDS011;11874;48.228;11.684;2022-12-07T07:08:51;14.52;;;10.20;;
23402;SDS011;11874;48.228;11.684;2022-12-07T07:11:19;14.77;;;10.00;;
23402;SDS011;11874;48.228;11.684;2022-12-07T07:13:47;13.85;;;9.73;;
23402;SDS011;11874;48.228;11.684;2022-12-07T07:16:15;13.82;;;10.07;;
23402;SDS011;11874;48.228;11.684;2022-12-07T07:18:43;13.27;;;9.80;;
23402;SDS011;11874;48.228;11.684;2022-12-07T07:21:11;13.45;;;9.45;;
23402;SDS011;11874;48.228;11.684;2022-12-07T07:23:39;13.07;;;9.23;;
23402;SDS011;11874;48.228;11.684;2022-12-07T07:26:08;14.38;;;10.18;;
23402;SDS011;11874;48.228;11.684;2022-12-07T07:28:36;14.18;;;9.93;;
23402;SDS011;11874;48.228;11.684;2022-12-07T07:31:04;13.95;;;9.23;;
23402;SDS011;11874;48.228;11.684;2022-12-07T07:33:32;14.13;;;9.55;;
23402;SDS011;11874;48.228;11.684;2022-12-07T07:36:00;13.00;;;9.48;;
23402;SDS011;11874;48.228;11.684;2022-12-07T07:38:28;13.88;;;9.73;;
23402;SDS011;11874;48.228;11.684;2022-12-07T07:40:56;18.02;;;10.20;;
23402;SDS011;11874;48.228;11.684;2022-12-07T07:43:25;14.50;;;10.10;;
23402;SDS011;11874;48.228;11.684;2022-12-07T07:45:52;13.43;;;9.65;;
23402;SDS011;11874;48.228;11.684;2022-12-07T07:48:20;12.60;;;9.63;;
23402;SDS011;11874;48.228;11.684;2022-12-07T07:50:51;13.82;;;9.93;;
23402;SDS011;11874;48.228;11.684;2022-12-07T07:53:19;13.40;;;9.93;;
23402;SDS011;11874;48.228;11.684;2022-12-07T07:55:50;13.02;;;9.63;;
23402;SDS011;11874;48.228;11.684;2022-12-07T07:58:19;14.40;;;9.32;;
23402;SDS011;11874;48.228;11.684;2022-12-07T08:00:49;12.55;;;9.07;;
23402;SDS011;11874;48.228;11.684;2022-12-07T08:03:17;11.15;;;8.73;;
23402;SDS011;11874;48.228;11.684;2022-12-07T08:05:45;14.35;;;9.93;;
23402;SDS011;11874;48.228;11.684;2022-12-07T08:08:12;16.25;;;10.32;;
23402;SDS011;11874;48.228;11.684;2022-12-07T08:10:41;12.93;;;9.32;;
23402;SDS011;11874;48.228;11.684;2022-12-07T08:13:09;12.77;;;9.45;;
23402;SDS011;11874;48.228;11.684;2022-12-07T08:15:41;14.98;;;10.23;;
23402;SDS011;11874;48.228;11.684;2022-12-07T08:18:11;14.45;;;10.45;;
23402;SDS011;11874;48.228;11.684;2022-12-07T08:20:40;11.80;;;8.68;;
23402;SDS011;11874;48.228;11.684;2022-12-07T08:23:09;14.15;;;9.90;;
23402;SDS011;11874;48.228;11.684;2022-12-07T08:25:38;13.30;;;9.05;;
23402;SDS011;11874;48.228;11.684;2022-12-07T08:28:06;12.25;;;8.18;;
23402;SDS011;11874;48.228;11.684;2022-12-07T08:30:34;12.70;;;8.65;;
23402;SDS011;11874;48.228;11.684;2022-12-07T08:33:02;11.93;;;8.63;;
23402;SDS011;11874;48.228;11.684;2022-12-07T08:35:32;14.65;;;9.60;;
23402;SDS011;11874;48.228;11.684;2022-12-07T08:38:00;14.75;;;9.15;;
23402;SDS011;11874;48.228;11.684;2022-12-07T08:40:28;14.90;;;9.00;;
23402;SDS011;11874;48.228;11.684;2022-12-07T08:42:57;13.50;;;9.18;;
23402;SDS011;11874;48.228;11.684;2022-12-07T08:45:24;13.52;;;9.15;;
23402;SDS011;11874;48.228;11.684;2022-12-07T08:47:54;15.50;;;9.70;;
23402;SDS011;11874;48.228;11.684;2022-12-07T08:50:27;11.50;;;8.52;;
23402;SDS011;11874;48.228;11.684;2022-12-07T08:52:57;12.57;;;8.90;;
23402;SDS011;11874;48.228;11.684;2022-12-07T08:55:26;13.23;;;9.45;;
23402;SDS011;11874;48.228;11.684;2022-12-07T08:57:55;13.18;;;8.85;;
23402;SDS011;11874;48.228;11.684;2022-12-07T09:00:25;14.63;;;9.40;;
23402;SDS011;11874;48.228;11.684;2022-12-07T09:02:53;13.52;;;8.77;;
23402;SDS011;11874;48.228;11.684;2022-12-07T09:05:21;16.65;;;10.52;;
23402;SDS011;11874;48.228;11.684;2022-12-07T09:07:51;12.10;;;8.80;;
23402;SDS011;11874;48.228;11.684;2022-12-07T09:10:23;12.68;;;8.90;;
23402;SDS011;11874;48.228;11.684;2022-12-07T09:12:52;12.70;;;9.05;;
23402;SDS011;11874;48.228;11.684;2022-12-07T09:15:19;12.80;;;9.27;;
23402;SDS011;11874;48.228;11.684;2022-12-07T09:17:47;13.95;;;8.30;;
23402;SDS011;11874;48.228;11.684;2022-12-07T09:20:15;12.65;;;8.57;;
23402;SDS011;11874;48.228;11.684;2022-12-07T09:22:48;16.15;;;7.90;;
23402;SDS011;11874;48.228;11.684;2022-12-07T09:25:16;12.23;;;8.07;;
23402;SDS011;11874;48.228;11.684;2022-12-07T09:27:45;12.73;;;8.50;;
23402;SDS011;11874;48.228;11.684;2022-12-07T09:30:14;10.70;;;7.18;;
23402;SDS011;11874;48.228;11.684;2022-12-07T09:32:42;13.20;;;7.82;;
23402;SDS011;11874;48.228;11.684;2022-12-07T09:35:09;11.55;;;7.38;;
23402;SDS011;11874;48.228;11.684;2022-12-07T09:37:37;10.57;;;7.68;;
23402;SDS011;11874;48.228;11.684;2022-12-07T09:40:05;11.02;;;7.85;;
23402;SDS011;11874;48.228;11.684;2022-12-07T09:42:35;11.48;;;8.15;;
23402;SDS011;11874;48.228;11.684;2022-12-07T09:45:10;11.65;;;7.90;;
23402;SDS011;11874;48.228;11.684;2022-12-07T09:47:41;12.65;;;8.48;;
23402;SDS011;11874;48.228;11.684;2022-12-07T09:50:12;12.68;;;8.48;;
23402;SDS011;11874;48.228;11.684;2022-12-07T09:52:42;13.63;;;9.20;;
23402;SDS011;11874;48.228;11.684;2022-12-07T09:55:14;7.70;;;5.27;;
23402;SDS011;11874;48.228;11.684;2022-12-07T09:57:44;13.85;;;8.23;;
23402;SDS011;11874;48.228;11.684;2022-12-07T10:00:14;10.95;;;7.45;;
23402;SDS011;11874;48.228;11.684;2022-12-07T10:02:44;13.93;;;8.05;;
23402;SDS011;11874;48.228;11.684;2022-12-07T10:05:16;12.80;;;8.02;;
23402;SDS011;11874;48.228;11.684;2022-12-07T10:07:50;10.23;;;7.63;;
23402;SDS011;11874;48.228;11.684;2022-12-07T10:10:19;11.43;;;8.27;;
23402;SDS011;11874;48.228;11.684;2022-12-07T10:12:55;10.80;;;7.63;;
23402;SDS011;11874;48.228;11.684;2022-12-07T10:18:16;11.25;;;8.18;;
23402;SDS011;11874;48.228;11.684;2022-12-07T10:21:05;13.68;;;9.02;;
23402;SDS011;11874;48.228;11.684;2022-12-07T10:23:39;10.82;;;7.50;;
23402;SDS011;11874;48.228;11.684;2022-12-07T10:26:24;12.25;;;8.13;;
23402;SDS011;11874;48.228;11.684;2022-12-07T10:28:56;12.70;;;9.20;;
23402;SDS011;11874;48.228;11.684;2022-12-07T10:31:28;13.90;;;8.55;;
23402;SDS011;11874;48.228;11.684;2022-12-07T10:33:57;12.10;;;8.25;;
23402;SDS011;11874;48.228;11.684;2022-12-07T10:36:26;12.02;;;7.72;;
23402;SDS011;11874;48.228;11.684;2022-12-07T10:39:03;11.63;;;8.20;;
23402;SDS011;11874;48.228;11.684;2022-12-07T10:41:43;13.82;;;8.18;;
23402;SDS011;11874;48.228;11.684;2022-12-07T10:46:53;11.82;;;7.45;;
23402;SDS011;11874;48.228;11.684;2022-12-07T10:55:08;7.77;;;5.03;;
23402;SDS011;11874;48.228;11.684;2022-12-07T10:57:49;10.52;;;7.15;;
23402;SDS011;11874;48.228;11.684;2022-12-07T11:00:39;14.95;;;7.13;;
23402;SDS011;11874;48.228;11.684;2022-12-07T11:03:20;8.30;;;5.82;;
23402;SDS011;11874;48.228;11.684;2022-12-07T11:05:59;9.85;;;6.00;;
23402;SDS011;11874;48.228;11.684;2022-12-07T11:08:39;10.77;;;7.05;;
23402;SDS011;11874;48.228;11.684;2022-12-07T11:11:16;11.23;;;7.68;;
23402;SDS011;11874;48.228;11.684;2022-12-07T11:13:52;11.05;;;6.35;;
23402;SDS011;11874;48.228;11.684;2022-12-07T11:22:19;9.77;;;6.38;;
23402;SDS011;11874;48.228;11.684;2022-12-07T11:24:55;8.52;;;6.20;;
23402;SDS011;11874;48.228;11.684;2022-12-07T11:27:32;9.27;;;6.90;;
23402;SDS011;11874;48.228;11.684;2022-12-07T11:30:14;9.90;;;6.88;;
23402;SDS011;11874;48.228;11.684;2022-12-07T11:32:51;10.02;;;6.60;;
23402;SDS011;11874;48.228;11.684;2022-12-07T11:35:32;8.68;;;6.38;;
23402;SDS011;11874;48.228;11.684;2022-12-07T11:38:08;8.60;;;6.07;;
23402;SDS011;11874;48.228;11.684;2022-12-07T11:40:39;6.38;;;4.47;;
23402;SDS011;11874;48.228;11.684;2022-12-07T11:43:13;9.25;;;6.50;;
23402;SDS011;11874;48.228;11.684;2022-12-07T11:45:47;7.05;;;5.20;;
23402;SDS011;11874;48.228;11.684;2022-12-07T11:48:22;8.88;;;5.95;;
23402;SDS011;11874;48.228;11.684;2022-12-07T11:51:00;8.70;;;6.18;;
23402;SDS011;11874;48.228;11.684;2022-12-07T11:53:31;6.73;;;4.60;;
23402;SDS011;11874;48.228;11.684;2022-12-07T11:56:07;7.65;;;5.88;;
23402;SDS011;11874;48.228;11.684;2022-12-07T11:58:46;8.10;;;5.75;;
23402;SDS011;11874;48.228;11.684;2022-12-07T12:01:22;7.38;;;5.38;;
23402;SDS011;11874;48.228;11.684;2022-12-07T12:03:58;8.63;;;5.55;;
23402;SDS011;11874;48.228;11.684;2022-12-07T12:06:33;7.38;;;5.07;;
23402;SDS011;11874;48.228;11.684;2022-12-07T12:09:03;7.38;;;5.88;;
23402;SDS011;11874;48.228;11.684;2022-12-07T12:12:02;8.55;;;6.32;;
23402;SDS011;11874;48.228;11.684;2022-12-07T12:15:16;8.18;;;5.63;;
23402;SDS011;11874;48.228;11.684;2022-12-07T12:17:56;9.80;;;5.90;;
23402;SDS011;11874;48.228;11.684;2022-12-07T12:21:02;9.90;;;6.25;;
23402;SDS011;11874;48.228;11.684;2022-12-07T12:23:37;9.57;;;6.22;;
23402;SDS011;11874;48.228;11.684;2022-12-07T12:26:13;8.93;;;5.88;;
23402;SDS011;11874;48.228;11.684;2022-12-07T12:28:49;10.57;;;7.07;;
23402;SDS011;11874;48.228;11.684;2022-12-07T12:31:31;10.57;;;6.72;;
23402;SDS011;11874;48.228;11.684;2022-12-07T12:36:44;10.48;;;6.50;;
23402;SDS011;11874;48.228;11.684;2022-12-07T12:50:28;10.13;;;6.38;;
23402;SDS011;11874;48.228;11.684;2022-12-07T12:53:11;14.85;;;8.82;;
23402;SDS011;11874;48.228;11.684;2022-12-07T12:58:50;9.52;;;6.90;;
23402;SDS011;11874;48.228;11.684;2022-12-07T13:01:49;9.65;;;6.50;;
23402;SDS011;11874;48.228;11.684;2022-12-07T13:04:23;7.03;;;6.03;;
23402;SDS011;11874;48.228;11.684;2022-12-07T13:10:21;8.18;;;5.97;;
23402;SDS011;11874;48.228;11.684;2022-12-07T13:12:58;9.00;;;5.90;;
23402;SDS011;11874;48.228;11.684;2022-12-07T13:15:34;7.97;;;6.28;;
23402;SDS011;11874;48.228;11.684;2022-12-07T13:18:21;7.32;;;5.85;;
23402;SDS011;11874;48.228;11.684;2022-12-07T13:20:52;7.60;;;5.95;;
23402;SDS011;11874;48.228;11.684;2022-12-07T13:23:23;8.00;;;5.93;;
23402;SDS011;11874;48.228;11.684;2022-12-07T13:25:56;8.88;;;6.22;;
23402;SDS011;11874;48.228;11.684;2022-12-07T13:28:37;9.57;;;6.07;;
23402;SDS011;11874;48.228;11.684;2022-12-07T13:34:00;8.55;;;6.32;;
23402;SDS011;11874;48.228;11.684;2022-12-07T13:36:30;11.13;;;6.40;;
23402;SDS011;11874;48.228;11.684;2022-12-07T13:39:10;9.45;;;6.78;;
23402;SDS011;11874;48.228;11.684;2022-12-07T13:41:44;8.50;;;6.30;;
23402;SDS011;11874;48.228;11.684;2022-12-07T13:44:20;10.20;;;6.82;;
23402;SDS011;11874;48.228;11.684;2022-12-07T13:46:59;13.38;;;7.20;;
23402;SDS011;11874;48.228;11.684;2022-12-07T13:49:36;9.07;;;6.38;;
23402;SDS011;11874;48.228;11.684;2022-12-07T13:52:15;9.48;;;6.60;;
23402;SDS011;11874;48.228;11.684;2022-12-07T13:54:45;11.30;;;7.55;;
23402;SDS011;11874;48.228;11.684;2022-12-07T13:57:15;12.73;;;7.53;;
23402;SDS011;11874;48.228;11.684;2022-12-07T13:59:44;10.27;;;6.70;;
23402;SDS011;11874;48.228;11.684;2022-12-07T14:02:19;9.00;;;6.60;;
23402;SDS011;11874;48.228;11.684;2022-12-07T14:04:49;11.05;;;7.00;;
23402;SDS011;11874;48.228;11.684;2022-12-07T14:07:19;9.63;;;6.65;;
23402;SDS011;11874;48.228;11.684;2022-12-07T14:09:56;10.70;;;7.60;;
23402;SDS011;11874;48.228;11.684;2022-12-07T14:12:27;11.25;;;7.63;;
23402;SDS011;11874;48.228;11.684;2022-12-07T14:14:58;11.02;;;7.15;;
23402;SDS011;11874;48.228;11.684;2022-12-07T14:17:28;9.85;;;7.07;;
23402;SDS011;11874;48.228;11.684;2022-12-07T14:19:56;11.82;;;6.55;;
23402;SDS011;11874;48.228;11.684;2022-12-07T14:22:30;8.43;;;6.75;;
23402;SDS011;11874;48.228;11.684;2022-12-07T14:25:01;9.88;;;7.03;;
23402;SDS011;11874;48.228;11.684;2022-12-07T14:27:46;11.82;;;7.15;;
23402;SDS011;11874;48.228;11.684;2022-12-07T14:30:18;11.73;;;6.63;;
23402;SDS011;11874;48.228;11.684;2022-12-07T14:32:48;11.05;;;6.93;;
23402;SDS011;11874;48.228;11.684;2022-12-07T14:35:18;9.20;;;6.72;;
23402;SDS011;11874;48.228;11.684;2022-12-07T14:37:47;9.80;;;7.22;;
23402;SDS011;11874;48.228;11.684;2022-12-07T14:40:17;10.20;;;6.95;;
23402;SDS011;11874;48.228;11.684;2022-12-07T14:42:46;8.25;;;6.38;;
23402;SDS011;11874;48.228;11.684;2022-12-07T14:45:19;10.50;;;7.80;;
23402;SDS011;11874;48.228;11.684;2022-12-07T14:47:50;8.15;;;4.95;;
23402;SDS011;11874;48.228;11.684;2022-12-07T14:50:40;10.13;;;6.93;;
23402;SDS011;11874;48.228;11.684;2022-12-07T14:53:35;9.98;;;7.28;;
23402;SDS011;11874;48.228;11.684;2022-12-07T14:56:06;10.70;;;7.15;;
23402;SDS011;11874;48.228;11.684;2022-12-07T14:58:34;10.57;;;7.03;;
23402;SDS011;11874;48.228;11.684;2022-12-07T15:01:04;11.90;;;7.53;;
23402;SDS011;11874;48.228;11.684;2022-12-07T15:03:32;10.32;;;7.40;;
23402;SDS011;11874;48.228;11.684;2022-12-07T15:06:04;10.17;;;6.87;;
23402;SDS011;11874;48.228;11.684;2022-12-07T15:08:32;12.25;;;7.18;;
23402;SDS011;11874;48.228;11.684;2022-12-07T15:11:00;10.27;;;7.25;;
23402;SDS011;11874;48.228;11.684;2022-12-07T15:13:28;11.13;;;7.40;;
23402;SDS011;11874;48.228;11.684;2022-12-07T15:16:16;13.23;;;7.22;;
23402;SDS011;11874;48.228;11.684;2022-12-07T15:18:47;13.25;;;6.97;;
23402;SDS011;11874;48.228;11.684;2022-12-07T15:21:35;10.70;;;7.03;;
23402;SDS011;11874;48.228;11.684;2022-12-07T15:24:03;10.23;;;7.10;;
23402;SDS011;11874;48.228;11.684;2022-12-07T15:26:31;11.07;;;7.10;;
23402;SDS011;11874;48.228;11.684;2022-12-07T15:28:59;11.73;;;7.47;;
23402;SDS011;11874;48.228;11.684;2022-12-07T15:31:28;9.77;;;6.55;;
23402;SDS011;11874;48.228;11.684;2022-12-07T15:34:17;9.93;;;6.97;;
23402;SDS011;11874;48.228;11.684;2022-12-07T15:36:45;11.35;;;7.32;;